Time;durP1;ratioP1;P1;durP2;ratioP2;P2;SDS_P1;SDS_P2;PMS_P1;PMS_P2;Temp;Humidity;BMP_temperature;BMP_pressure;BME280_temperature;BME280_humidity;BME280_pressure;Samples;Min_cycle;Max_cycle;Signal;HPM_P1;HPM_P2
2024/03/16 00:04:26;;;;;;;;;;;8.50;99.90;;;;;;21133846;28;19915;-78
2024/03/16 00:14:27;;;;;;;;;;;8.40;99.90;;;;;;21170226;28;19965;-78
2024/03/16 00:24:28;;;;;;;;;;;8.30;99.90;;;;;;21165936;28;19923;-78
2024/03/16 00:34:28;;;;;;;;;;;8.50;99.90;;;;;;21152321;28;19985;-78
2024/03/16 00:44:30;;;;;;;;;;;8.40;99.90;;;;;;21176115;28;19943;-78
2024/03/16 00:54:30;;;;;;;;;;;8.40;99.90;;;;;;21166501;28;19911;-78
2024/03/16 01:04:34;;;;;;;;;;;8.20;99.90;;;;;;21163473;28;19919;-78
2024/03/16 01:14:34;;;;;;;;;;;8.20;99.90;;;;;;21169023;28;20010;-78
2024/03/16 01:24:35;;;;;;;;;;;8.40;99.90;;;;;;21145612;28;20379;-78
2024/03/16 01:34:36;;;;;;;;;;;8.40;99.90;;;;;;21125112;28;19920;-78
2024/03/16 01:44:36;;;;;;;;;;;8.30;99.90;;;;;;21150352;28;19945;-78
2024/03/16 01:54:37;;;;;;;;;;;8.30;99.90;;;;;;21149767;28;19911;-77
2024/03/16 02:04:37;;;;;;;;;;;8.30;99.90;;;;;;21157371;28;19924;-78
2024/03/16 02:14:38;;;;;;;;;;;8.40;99.90;;;;;;21103306;28;19947;-78
2024/03/16 02:24:39;;;;;;;;;;;8.40;99.90;;;;;;21102793;28;19947;-78
2024/03/16 02:34:40;;;;;;;;;;;8.40;99.90;;;;;;21101514;28;20339;-78
2024/03/16 02:44:42;;;;;;;;;;;8.30;99.90;;;;;;21088755;28;20545;-77
2024/03/16 02:54:43;;;;;;;;;;;8.40;99.90;;;;;;21098332;28;19912;-78
2024/03/16 03:04:44;;;;;;;;;;;8.40;99.90;;;;;;21105327;28;20282;-78
2024/03/16 03:14:44;;;;;;;;;;;8.40;99.90;;;;;;21127071;28;19974;-78
2024/03/16 03:24:45;;;;;;;;;;;8.40;99.90;;;;;;21135844;28;19920;-77
2024/03/16 03:34:46;;;;;;;;;;;8.30;99.90;;;;;;21145529;28;19967;-78
2024/03/16 03:45:00;;;;;;;;;;;8.30;99.90;;;;;;21142826;28;19926;-78
2024/03/16 03:55:00;;;;;;;;;;;8.30;99.90;;;;;;21143473;28;20002;-78
2024/03/16 04:05:02;;;;;;;;;;;8.20;99.90;;;;;;21137172;28;20298;-78
2024/03/16 04:15:03;;;;;;;;;;;8.40;99.90;;;;;;21148929;28;19920;-75
2024/03/16 04:25:07;;;;;;;;;;;8.40;99.90;;;;;;21136472;28;20158;-78
2024/03/16 04:35:08;;;;;;;;;;;8.50;99.90;;;;;;21194657;28;20375;-78
2024/03/16 04:45:09;;;;;;;;;;;8.60;99.90;;;;;;21177317;28;20410;-78
2024/03/16 04:55:09;;;;;;;;;;;8.60;99.90;;;;;;21144109;28;19912;-78
2024/03/16 05:05:10;;;;;;;;;;;8.60;99.90;;;;;;21153417;28;19920;-78
2024/03/16 05:15:11;;;;;;;;;;;8.40;99.90;;;;;;21149528;28;20015;-77
2024/03/16 05:25:11;;;;;;;;;;;8.40;99.90;;;;;;21161308;28;20267;-78
2024/03/16 05:35:12;;;;;;;;;;;8.50;99.90;;;;;;21154894;28;19912;-78
2024/03/16 05:45:13;;;;;;;;;;;8.70;99.90;;;;;;21144087;28;19961;-78
2024/03/16 05:55:15;;;;;;;;;;;8.80;99.90;;;;;;21150837;28;19913;-78
2024/03/16 06:05:16;;;;;;;;;;;8.90;99.90;;;;;;21147877;28;19919;-77
2024/03/16 06:15:16;;;;;;;;;;;9.00;99.90;;;;;;21135108;28;20006;-78
2024/03/16 06:25:17;;;;;;;;;;;9.30;99.90;;;;;;21171400;28;19915;-79
2024/03/16 06:35:17;;;;;;;;;;;9.50;99.90;;;;;;21143463;28;20295;-79
2024/03/16 06:45:18;;;;;;;;;;;9.60;99.90;;;;;;21188864;28;19916;-79
2024/03/16 06:55:19;;;;;;;;;;;9.60;99.90;;;;;;21163552;28;19912;-80
2024/03/16 07:05:20;;;;;;;;;;;9.50;99.90;;;;;;21150093;28;19922;-78
2024/03/16 07:15:20;;;;;;;;;;;9.50;99.90;;;;;;21144279;28;19916;-79
2024/03/16 07:25:21;;;;;;;;;;;9.50;99.90;;;;;;21163755;28;20390;-80
2024/03/16 07:35:22;;;;;;;;;;;9.50;99.90;;;;;;21165913;28;19923;-78
2024/03/16 07:45:22;;;;;;;;;;;9.30;99.90;;;;;;21154276;28;19919;-78
2024/03/16 07:55:24;;;;;;;;;;;9.50;99.90;;;;;;21119143;28;19912;-78
2024/03/16 08:05:24;;;;;;;;;;;9.50;99.90;;;;;;21150394;28;19916;-79
2024/03/16 08:15:25;;;;;;;;;;;9.80;99.90;;;;;;21155704;28;20004;-79
2024/03/16 08:25:29;;;;;;;;;;;10.20;99.90;;;;;;21160061;28;19916;-80
2024/03/16 08:35:32;;;;;;;;;;;10.80;99.90;;;;;;21138871;28;19916;-80
2024/03/16 08:45:34;;;;;;;;;;;11.10;99.90;;;;;;21145403;28;19931;-79
2024/03/16 08:55:35;;;;;;;;;;;11.20;99.90;;;;;;21138330;28;19967;-78
2024/03/16 09:05:36;;;;;;;;;;;11.80;99.90;;;;;;21142526;28;19920;-80
2024/03/16 09:15:37;;;;;;;;;;;12.40;99.90;;;;;;21136395;28;19927;-79
2024/03/16 09:25:37;;;;;;;;;;;12.70;99.90;;;;;;21144248;28;19916;-78
2024/03/16 09:35:45;;;;;;;;;;;12.40;99.90;;;;;;21114310;28;19912;-79
2024/03/16 09:45:46;;;;;;;;;;;12.70;99.90;;;;;;21111121;28;19920;-79
2024/03/16 09:55:47;;;;;;;;;;;12.40;99.90;;;;;;21137557;28;20294;-78
2024/03/16 10:05:48;;;;;;;;;;;11.80;99.90;;;;;;21143328;28;19932;-79
2024/03/16 10:15:48;;;;;;;;;;;11.60;99.90;;;;;;21159434;28;20379;-78
2024/03/16 10:25:49;;;;;;;;;;;11.40;99.90;;;;;;21172764;28;20009;-78
2024/03/16 10:35:52;;;;;;;;;;;11.50;99.90;;;;;;21183849;28;19939;-78
2024/03/16 10:45:54;;;;;;;;;;;12.30;99.90;;;;;;21157812;28;19924;-79
2024/03/16 10:55:54;;;;;;;;;;;13.60;99.90;;;;;;21117179;28;20291;-78
2024/03/16 11:06:09;;;;;;;;;;;13.80;99.90;;;;;;21128767;28;19920;-77
2024/03/16 11:16:25;;;;;;;;;;;15.60;99.90;;;;;;21133674;28;19916;-79
2024/03/16 11:26:25;;;;;;;;;;;14.20;99.90;;;;;;21182235;28;19924;-79
2024/03/16 11:36:29;;;;;;;;;;;13.60;99.90;;;;;;21156807;28;19923;-78
2024/03/16 11:46:29;;;;;;;;;;;13.20;99.90;;;;;;21167976;28;19920;-78
2024/03/16 11:56:33;;;;;;;;;;;12.70;99.90;;;;;;21185701;28;19966;-76
2024/03/16 12:06:34;;;;;;;;;;;12.50;99.90;;;;;;21143895;28;19920;-78
2024/03/16 12:16:36;;;;;;;;;;;13.00;99.90;;;;;;21098584;28;20291;-78
2024/03/16 12:26:40;;;;;;;;;;;13.30;99.90;;;;;;21094112;28;19938;-77
2024/03/16 12:36:41;;;;;;;;;;;13.80;99.90;;;;;;21096902;28;19927;-78
2024/03/16 12:46:42;;;;;;;;;;;13.10;99.90;;;;;;21105766;28;20386;-78
2024/03/16 12:56:50;;;;;;;;;;;13.10;99.90;;;;;;21131987;28;19959;-78
2024/03/16 13:06:50;;;;;;;;;;;13.10;99.90;;;;;;21162347;28;19927;-79
2024/03/16 13:16:51;;;;;;;;;;;13.30;99.90;;;;;;21118613;28;19924;-79
2024/03/16 13:26:52;;;;;;;;;;;14.00;99.90;;;;;;21085121;28;19931;-78
2024/03/16 13:36:52;;;;;;;;;;;13.40;99.90;;;;;;21089071;28;19920;-78
2024/03/16 13:46:55;;;;;;;;;;;14.20;99.90;;;;;;21119218;28;20002;-78
2024/03/16 13:56:56;;;;;;;;;;;14.20;99.90;;;;;;21158030;28;19923;-76
2024/03/16 14:06:56;;;;;;;;;;;14.40;99.90;;;;;;21134881;28;19919;-79
2024/03/16 14:16:57;;;;;;;;;;;15.50;99.90;;;;;;21150374;28;19916;-78
2024/03/16 14:26:59;;;;;;;;;;;13.80;99.90;;;;;;21096165;28;20429;-79
2024/03/16 14:37:00;;;;;;;;;;;13.80;99.90;;;;;;21140111;28;19935;-80
2024/03/16 14:47:01;;;;;;;;;;;13.90;99.90;;;;;;21150145;28;19916;-80
2024/03/16 14:57:02;;;;;;;;;;;14.00;99.90;;;;;;21162547;28;19922;-79
2024/03/16 15:07:03;;;;;;;;;;;14.30;99.90;;;;;;21173555;28;19927;-79
2024/03/16 15:17:04;;;;;;;;;;;14.20;99.90;;;;;;21191383;28;19959;-80
2024/03/16 15:37:23;;;;;;;;;;;12.60;99.90;;;;;;21145335;28;19923;-76
2024/03/16 15:47:24;;;;;;;;;;;11.90;99.90;;;;;;21105720;28;19920;-78
2024/03/16 15:57:24;;;;;;;;;;;11.60;99.90;;;;;;21121283;28;20332;-77
2024/03/16 16:07:25;;;;;;;;;;;12.00;99.90;;;;;;21103378;28;19919;-76
2024/03/16 16:17:26;;;;;;;;;;;12.20;99.90;;;;;;21115126;27;19915;-79
2024/03/16 16:27:26;;;;;;;;;;;11.80;99.90;;;;;;21144565;28;20294;-78
2024/03/16 16:37:27;;;;;;;;;;;11.50;99.90;;;;;;21125069;28;19940;-81
2024/03/16 16:47:28;;;;;;;;;;;11.20;99.90;;;;;;21114749;28;20038;-78
2024/03/16 16:57:29;;;;;;;;;;;11.10;99.90;;;;;;21119949;28;19912;-80
2024/03/16 17:07:33;;;;;;;;;;;10.90;99.90;;;;;;21118733;28;19923;-80
2024/03/16 17:17:33;;;;;;;;;;;10.80;99.90;;;;;;21115636;28;19926;-79
2024/03/16 17:27:34;;;;;;;;;;;10.90;99.90;;;;;;21137998;28;20149;-80
2024/03/16 17:37:35;;;;;;;;;;;10.80;99.90;;;;;;21132889;28;19931;-82
2024/03/16 17:47:35;;;;;;;;;;;10.60;99.90;;;;;;21121143;28;19924;-80
2024/03/16 17:57:36;;;;;;;;;;;10.30;99.90;;;;;;21103528;28;19979;-79
2024/03/16 18:07:37;;;;;;;;;;;10.30;99.90;;;;;;21122715;28;19982;-78
2024/03/16 18:17:38;;;;;;;;;;;10.40;99.90;;;;;;21117763;28;19924;-77
2024/03/16 18:27:39;;;;;;;;;;;10.40;99.90;;;;;;21158990;28;20014;-78
2024/03/16 18:37:39;;;;;;;;;;;10.00;99.90;;;;;;21192917;28;20008;-78
2024/03/16 18:47:40;;;;;;;;;;;9.80;99.90;;;;;;21181616;28;19915;-76
2024/03/16 18:57:41;;;;;;;;;;;9.60;99.90;;;;;;21189520;28;19973;-78
2024/03/16 19:07:42;;;;;;;;;;;9.20;99.90;;;;;;21242902;28;19908;-78
2024/03/16 19:17:43;;;;;;;;;;;8.80;99.90;;;;;;21205359;28;19927;-81
2024/03/16 19:27:43;;;;;;;;;;;8.70;99.90;;;;;;21153248;28;20032;-79
2024/03/16 19:37:44;;;;;;;;;;;8.30;99.90;;;;;;21178962;28;20367;-78
2024/03/16 19:47:45;;;;;;;;;;;8.60;99.90;;;;;;21173317;28;19975;-80
2024/03/16 19:57:45;;;;;;;;;;;8.40;99.90;;;;;;21160354;27;20006;-80
2024/03/16 20:07:46;;;;;;;;;;;8.20;99.90;;;;;;21128119;28;19923;-79
2024/03/16 20:17:47;;;;;;;;;;;7.80;99.90;;;;;;21117727;28;19916;-79
2024/03/16 20:27:52;;;;;;;;;;;7.80;99.90;;;;;;21088688;28;19920;-78
2024/03/16 20:37:52;;;;;;;;;;;7.50;99.90;;;;;;21096460;28;20436;-77
2024/03/16 20:47:53;;;;;;;;;;;7.30;99.90;;;;;;21093525;28;19952;-78
2024/03/16 20:57:55;;;;;;;;;;;7.30;99.90;;;;;;21117598;28;20010;-78
2024/03/16 21:07:55;;;;;;;;;;;7.10;99.90;;;;;;21138392;28;19928;-78
2024/03/16 21:17:56;;;;;;;;;;;6.90;99.90;;;;;;21089177;28;20371;-78
2024/03/16 21:27:57;;;;;;;;;;;6.90;99.90;;;;;;21092519;28;19916;-77
2024/03/16 21:37:57;;;;;;;;;;;6.90;99.90;;;;;;21087338;28;19913;-77
2024/03/16 21:47:58;;;;;;;;;;;6.50;99.90;;;;;;21084927;28;20383;-78
2024/03/16 21:57:59;;;;;;;;;;;6.90;99.90;;;;;;21088991;28;19912;-77
2024/03/16 22:08:05;;;;;;;;;;;6.70;99.90;;;;;;21102788;28;19919;-78
2024/03/16 22:18:05;;;;;;;;;;;6.60;99.90;;;;;;21146303;28;19916;-75
2024/03/16 22:28:06;;;;;;;;;;;6.80;99.90;;;;;;21107532;28;19923;-78
2024/03/16 22:38:07;;;;;;;;;;;6.40;99.90;;;;;;21109944;28;19912;-78
2024/03/16 22:48:08;;;;;;;;;;;6.40;99.90;;;;;;21109276;28;19916;-78
2024/03/16 22:58:09;;;;;;;;;;;6.50;99.90;;;;;;21102930;28;19916;-76
2024/03/16 23:08:09;;;;;;;;;;;6.70;99.90;;;;;;21115243;28;20043;-78
2024/03/16 23:18:10;;;;;;;;;;;6.60;99.90;;;;;;21106381;28;19951;-78
2024/03/16 23:28:11;;;;;;;;;;;6.70;99.90;;;;;;21081597;28;19916;-77
2024/03/16 23:38:12;;;;;;;;;;;6.60;99.90;;;;;;21105590;28;19944;-78
2024/03/16 23:48:12;;;;;;;;;;;6.70;99.90;;;;;;21106101;28;20295;-78
2024/03/16 23:58:14;;;;;;;;;;;6.80;99.90;;;;;;21099313;28;19978;-79
